Latest Weather Observations for Braidwood

IDN60901

Issued at 8:01 pm EST Wednesday 17 July 2024 (issued every 10 minutes, with the page automatically refreshed every 10 minutes)

About weather observations | Map of Canberra area stations | Latest observations for Canberra area | Other Formats
Station Details ID: 069132 Name: BRAIDWOOD RACECOURSE AWS Lat: -35.43 Lon: 149.78 Height: 665.2 m
Data from the previous 72 hours. | See also: Recent months at Braidwood
Date/Time
EST
Temp
°C
App
Temp
°C
Dew
Point
°C
Rel
Hum
%
Delta-T
°C
Wind Press
QNH
hPa
Press
MSL
hPa
Rain since
9am
mm
Dir  Spd
km/h
Gust
km/h
Spd
kts
Gust
kts
17/07:30pm 6.2 3.1 3.4 82 1.2 WSW 9 13 5 7 1010.3 1011.2 0.0
17/07:00pm 6.5 4.0 3.7 82 1.2 SW 6 11 3 6 1009.8 1010.7 0.0
17/06:30pm 8.0 5.7 4.6 79 1.6 SW 6 11 3 6 1009.2 1010.1 0.0
17/06:00pm 8.2 5.3 4.6 78 1.7 SSW 9 13 5 7 1009.0 1009.9 0.0
17/05:30pm 8.3 6.1 5.1 80 1.5 WSW 6 9 3 5 1008.6 1009.5 0.0
17/05:00pm 8.7 6.3 5.4 80 1.6 WSW 7 13 4 7 1008.3 1009.2 0.0
17/04:30pm 9.5 6.3 5.3 75 2.0 SW 11 17 6 9 1007.9 1008.7 0.0
17/04:00pm 10.1 6.9 5.1 71 2.4 WSW 11 17 6 9 1007.5 1008.4 0.0
17/03:30pm 10.4 7.7 5.4 71 2.4 SW 9 17 5 9 1007.3 1008.2 0.0
17/03:00pm 10.3 7.4 4.9 69 2.5 SSW 9 15 5 8 1007.1 1008.0 0.0
17/02:30pm 10.4 5.6 4.5 67 2.7 SSW 19 32 10 17 1006.9 1007.7 0.0
17/02:00pm 10.7 5.7 4.8 67 2.8 SSW 20 30 11 16 1006.6 1007.4 0.0
17/01:30pm 10.6 6.2 4.9 68 2.7 SW 17 28 9 15 1006.4 1007.2 0.0
17/01:00pm 10.9 6.9 5.0 67 2.8 WSW 15 24 8 13 1006.4 1007.2 0.0
17/12:30pm 10.6 5.8 4.9 68 2.7 WSW 19 30 10 16 1006.5 1007.3 0.0
17/12:00pm 10.6 5.8 4.5 66 2.9 SW 19 32 10 17 1006.6 1007.4 0.0
17/11:30am 10.7 5.9 4.4 65 2.9 SW 19 32 10 17 1006.8 1007.6 0.0
17/11:00am 10.7 6.0 5.0 68 2.7 SW 19 28 10 15 1007.1 1008.0 0.0
17/10:30am 10.2 5.4 4.6 68 2.6 SW 19 28 10 15 1007.3 1008.2 0.0
17/10:00am 10.2 6.1 4.6 68 2.6 SW 15 28 8 15 1007.3 1008.2 0.0
17/09:30am 9.7 6.1 5.1 73 2.2 SW 13 24 7 13 1007.0 1007.9 0.0
17/09:00am 8.9 4.9 4.7 75 1.9 WSW 15 22 8 12 1006.8 1007.6 2.0
17/08:30am 8.0 5.4 4.4 78 1.6 WSW 7 13 4 7 1006.6 1007.4 2.0
17/08:00am 7.3 4.2 3.7 78 1.6 SW 9 13 5 7 1006.4 1007.2 2.0
17/07:30am 7.0 3.9 3.6 79 1.5 WSW 9 19 5 10 1005.9 1006.8 2.0
17/07:00am 6.8 3.7 3.6 80 1.4 SW 9 17 5 9 1005.7 1006.5 2.0
17/06:30am 6.1 3.0 3.4 83 1.2 WSW 9 13 5 7 1005.3 1006.1 2.0
17/06:00am 5.7 2.4 2.7 81 1.3 WNW 9 13 5 7 1004.8 1005.6 2.0
17/05:30am 5.9 3.1 3.1 82 1.2 WNW 7 11 4 6 1004.4 1005.2 2.0
17/05:00am 4.6 3.0 2.5 86 0.9 CALM 0 6 0 3 1004.2 1005.0 2.0
17/04:30am 4.9 2.7 3.1 88 0.8 NNW 4 7 2 4 1004.0 1004.8 2.0
17/04:00am 4.9 3.4 2.8 86 0.9 CALM 0 0 0 0 1004.0 1004.8 2.0
17/03:30am 4.6 2.6 2.3 85 1.0 NNE 2 4 1 2 1003.9 1004.7 2.0
17/03:00am 6.4 3.3 3.4 81 1.3 W 9 15 5 8 1003.9 1004.7 2.0
17/02:30am 4.2 0.9 2.7 90 0.6 NW 9 13 5 7 1004.0 1004.8 2.0
17/02:00am 6.2 2.6 3.2 81 1.3 WNW 11 19 6 10 1003.9 1004.7 2.0
17/01:30am 6.8 2.6 3.6 80 1.4 W 15 20 8 11 1004.1 1004.9 1.8
17/01:00am 5.9 3.3 3.1 82 1.2 W 6 9 3 5 1004.1 1004.9 1.8
17/12:30am 6.6 3.5 3.4 80 1.4 NW 9 17 5 9 1004.1 1004.9 1.8
17/12:00am 6.8 3.3 3.6 80 1.4 WNW 11 15 6 8 1004.1 1004.9 1.8
 
Date/Time
EST
Temp
°C
App
Temp
°C
Dew
Point
°C
Rel
Hum
%
Delta-T
°C
Wind Press
QNH
hPa
Press
MSL
hPa
Rain since
9am
mm
Dir  Spd
km/h
Gust
km/h
Spd
kts
Gust
kts
16/11:30pm 6.8 3.3 3.6 80 1.4 WNW 11 17 6 9 1004.3 1005.1 1.8
16/11:00pm 6.7 3.3 3.9 82 1.3 W 11 15 6 8 1004.4 1005.2 1.8
16/10:30pm 6.3 2.9 3.8 84 1.1 WNW 11 17 6 9 1004.4 1005.2 1.8
16/10:00pm 6.2 2.9 4.5 89 0.8 WNW 11 13 6 7 1004.3 1005.1 1.8
16/09:30pm 6.4 2.7 4.7 89 0.8 WNW 13 17 7 9 1004.1 1004.9 1.8
16/09:00pm 6.3 3.5 5.1 92 0.6 NW 9 15 5 8 1003.8 1004.6 1.8
16/08:30pm 7.0 3.2 5.6 91 0.7 WNW 15 22 8 12 1003.8 1004.6 1.8
16/08:00pm 6.9 3.5 5.7 92 0.6 WNW 13 19 7 10 1003.4 1004.2 1.6
16/07:30pm 6.8 3.7 5.7 93 0.5 NW 11 15 6 8 1003.1 1003.8 1.6
16/07:00pm 7.1 4.5 5.9 92 0.6 WNW 9 17 5 9 1003.0 1003.7 1.2
16/06:30pm 7.3 4.7 6.1 92 0.6 NW 9 15 5 8 1002.5 1003.3 0.6
16/06:00pm 7.7 3.1 5.8 88 0.9 WNW 19 22 10 12 1002.2 1003.0 0.2
16/05:30pm 7.7 4.3 5.7 87 0.9 WNW 13 17 7 9 1001.9 1002.6 0.2
16/05:00pm 7.9 4.4 5.4 84 1.2 NW 13 19 7 10 1001.2 1002.0 0.2
16/04:30pm 7.7 5.5 6.0 89 0.8 NW 7 13 4 7 1001.0 1001.8 0.2
16/04:00pm 7.9 5.7 6.0 88 0.9 NW 7 13 4 7 1000.8 1001.6 0.2
16/03:30pm 9.0 6.3 5.7 80 1.6 WNW 9 13 5 7 1000.5 1001.2 0.2
16/03:00pm 9.8 6.6 5.2 73 2.2 WSW 11 19 6 10 1000.3 1001.0 0.2
16/02:30pm 9.5 5.1 4.7 72 2.2 WSW 17 26 9 14 1000.1 1000.8 0.2
16/02:00pm 10.8 6.6 4.0 63 3.2 WSW 15 22 8 12 999.5 1000.3 0.2
16/01:30pm 10.5 6.2 3.5 62 3.2 W 15 20 8 11 999.5 1000.3 0.2
16/01:00pm 9.6 5.7 3.4 65 2.8 W 13 19 7 10 999.6 1000.4 0.2
16/12:30pm 9.4 4.5 4.2 70 2.4 W 19 24 10 13 999.9 1000.6 0.2
16/12:00pm 8.8 4.3 4.0 72 2.2 W 17 24 9 13 1000.2 1000.9 0.2
16/11:30am 8.3 3.7 3.8 73 2.0 WNW 17 24 9 13 1000.4 1001.1 0.2
16/11:00am 7.7 3.0 3.2 73 2.0 W 17 22 9 12 1000.5 1001.2 0.2
16/10:30am 7.5 2.5 3.4 75 1.8 W 19 26 10 14 1000.5 1001.2 0.2
16/10:00am 6.9 2.6 3.2 77 1.6 WNW 15 22 8 12 1000.4 1001.1 0.0
16/09:30am 6.2 1.8 2.7 78 1.5 W 15 22 8 12 1000.2 1000.9 0.0
16/09:00am 5.8 2.5 2.3 78 1.5 WNW 9 15 5 8 999.8 1000.5 0.2
16/08:30am 5.4 0.5 2.1 79 1.4 WNW 17 24 9 13 999.2 999.9 0.2
16/08:00am 5.3 1.2 2.0 79 1.4 WNW 13 20 7 11 998.8 999.5 0.2
16/07:30am 4.6 1.1 1.5 80 1.3 NW 9 19 5 10 998.7 999.4 0.2
16/07:00am 4.5 0.6 1.4 80 1.3 NW 11 20 6 11 998.2 998.9 0.2
16/06:30am 4.6 0.0 1.5 80 1.3 WNW 15 28 8 15 997.8 998.5 0.2
16/06:00am 4.6 -0.9 1.6 81 1.2 WNW 20 35 11 19 997.3 998.0 0.2
16/05:30am 4.4 -1.1 1.8 83 1.1 NW 20 35 11 19 997.1 997.8 0.2
16/05:00am 4.4 -0.5 1.9 84 1.0 NW 17 26 9 14 997.4 998.1 0.2
16/04:30am 4.3 -1.2 1.8 84 1.0 NW 20 39 11 21 996.9 997.6 0.2
16/04:00am 4.3 -2.3 1.8 84 1.0 WNW 26 46 14 25 997.0 997.7 0.2
16/03:30am 4.4 -0.5 1.9 84 1.0 NW 17 33 9 18 997.4 998.1 0.0
16/03:00am 4.3 -0.6 2.0 85 1.0 NW 17 33 9 18 997.3 998.0 0.0
16/02:30am 4.4 -1.1 1.9 84 1.0 NW 20 39 11 21 997.4 998.1 0.0
16/02:00am 4.8 -0.8 1.3 78 1.4 NW 20 32 11 17 997.7 998.4 0.0
16/01:30am 4.7 -0.8 1.6 80 1.3 NW 20 39 11 21 998.0 998.7 0.0
16/01:00am 4.6 -0.7 1.8 82 1.2 NW 19 37 10 20 998.4 999.1 0.0
16/12:30am 4.6 -1.0 1.5 80 1.3 NW 20 33 11 18 998.8 999.5 0.0
16/12:00am 4.6 -0.7 1.6 81 1.2 NW 19 33 10 18 999.1 999.8 0.0
 
Date/Time
EST
Temp
°C
App
Temp
°C
Dew
Point
°C
Rel
Hum
%
Delta-T
°C
Wind Press
QNH
hPa
Press
MSL
hPa
Rain since
9am
mm
Dir  Spd
km/h
Gust
km/h
Spd
kts
Gust
kts
15/11:30pm 4.5 0.3 1.5 81 1.2 NW 13 28 7 15 1000.1 1000.8 0.0
15/11:00pm 4.5 -0.9 1.4 80 1.3 NW 19 33 10 18 1000.0 1000.7 0.0
15/10:30pm 4.2 -1.2 1.1 80 1.3 NW 19 43 10 23 1000.5 1001.2 0.0
15/10:00pm 4.8 -0.3 0.9 76 1.6 NW 17 32 9 17 1001.0 1001.8 0.0
15/09:30pm 5.2 -1.2 1.0 74 1.7 NW 24 35 13 19 1001.1 1001.9 0.0
15/09:00pm 5.3 -2.6 0.9 73 1.8 WNW 32 50 17 27 1001.2 1002.0 0.0
15/08:53pm 5.2 -1.2 1.1 75 1.7 NW 24 50 13 27 1001.2 1002.0 0.0
15/08:50pm 5.3 -0.7 0.9 73 1.8 NW 22 44 12 24 1001.1 1001.9 0.0
15/08:30pm 4.9 1.5 1.7 80 1.3 NW 9 17 5 9 1001.6 1002.3 0.0
15/08:00pm 4.9 1.1 1.7 80 1.3 NNW 11 22 6 12 1001.8 1002.5 0.0
15/07:30pm 4.8 1.9 1.7 80 1.3 NNW 6 13 3 7 1002.1 1002.9 0.0
15/07:00pm 4.8 1.4 1.7 80 1.3 NW 9 19 5 10 1002.3 1003.1 0.0
15/06:30pm 4.9 1.0 1.2 77 1.5 NNW 11 24 6 13 1002.2 1003.0 0.0
15/06:00pm 5.0 -0.1 0.9 75 1.7 NW 17 28 9 15 1002.3 1003.1 0.0
15/05:30pm 4.9 -0.8 0.7 74 1.7 NW 20 37 11 20 1002.2 1003.0 0.0
15/05:00pm 5.0 -1.1 0.6 73 1.8 NW 22 37 12 20 1002.2 1003.0 0.0
15/04:30pm 5.6 -0.5 0.4 69 2.1 WNW 22 35 12 19 1002.4 1003.2 0.0
15/04:00pm 6.5 0.8 0.6 66 2.4 NW 20 33 11 18 1002.5 1003.3 0.0
15/03:30pm 7.1 0.3 0.8 64 2.6 WNW 26 41 14 22 1002.6 1003.4 0.0
15/03:00pm 7.3 0.5 1.0 64 2.6 NW 26 39 14 21 1002.6 1003.4 0.0
15/02:30pm 8.0 1.7 1.6 64 2.7 WNW 24 39 13 21 1002.6 1003.4 0.0
15/02:00pm 8.4 1.8 1.8 63 2.9 WNW 26 41 14 22 1002.6 1003.4 0.0
15/01:30pm 8.0 0.7 0.0 57 3.3 WNW 28 52 15 28 1002.5 1003.3 0.0
15/01:16pm 8.6 1.4 0.6 57 3.4 WNW 28 52 15 28 1002.6 1003.4 0.0
15/01:00pm 8.7 1.2 0.9 58 3.3 WNW 30 39 16 21 1002.7 1003.5 0.0
15/12:30pm 8.3 1.5 0.5 58 3.3 WNW 26 41 14 22 1003.1 1003.8 0.0
15/12:00pm 8.3 2.0 1.7 63 2.8 WNW 24 37 13 20 1003.6 1004.4 0.0
15/11:30am 7.5 1.8 0.7 62 2.8 NW 20 30 11 16 1004.4 1005.2 0.0
15/11:00am 6.9 1.2 0.6 64 2.6 WNW 20 32 11 17 1005.1 1005.9 0.0
15/10:30am 6.4 0.7 0.3 65 2.5 WNW 20 32 11 17 1005.5 1006.3 0.0
15/10:00am 5.6 0.4 0.2 68 2.2 WNW 17 24 9 13 1005.8 1006.7 0.0
15/09:30am 5.0 0.2 0.0 70 2.0 WNW 15 24 8 13 1005.8 1006.7 0.0
15/09:00am 3.4 -0.2 0.3 80 1.2 NW 9 17 5 9 1005.9 1006.8 0.0
15/08:30am 2.1 -2.1 -0.8 81 1.1 NW 11 19 6 10 1005.8 1006.7 0.0
15/08:00am 0.5 -3.4 -1.4 87 0.7 NW 9 13 5 7 1005.7 1006.5 0.0
15/07:30am -0.9 -4.6 -2.6 88 0.6 NW 7 13 4 7 1005.7 1006.5 0.0
15/07:00am 0.3 -4.1 -2.1 84 0.9 NW 11 17 6 9 1005.7 1006.5 0.0
15/06:30am -0.6 -4.6 -2.0 90 0.5 NW 9 17 5 9 1005.8 1006.7 0.0
15/06:00am -1.7 -4.4 -2.7 93 0.3 NNW 2 6 1 3 1005.9 1006.8 0.0
15/05:30am -0.8 -3.8 -1.8 93 0.3 NW 4 6 2 3 1005.9 1006.8 0.0
15/05:00am -0.4 -3.4 -1.5 92 0.4 NNE 4 6 2 3 1005.9 1006.8 0.0
15/04:30am -0.8 -3.5 -2.4 89 0.5 NNW 2 4 1 2 1005.9 1006.8 0.0
15/04:00am 0.4 -2.5 -1.3 88 0.6 NW 4 11 2 6 1006.2 1007.0 0.0
15/03:30am 1.0 -2.3 -1.2 85 0.8 NW 6 9 3 5 1006.2 1007.0 0.0
15/03:00am 1.4 -2.1 -1.0 84 0.9 NW 7 13 4 7 1006.4 1007.2 0.0
15/02:30am 0.8 -1.7 -1.3 86 0.8 NE 2 7 1 4 1006.4 1007.2 0.0
15/02:00am 0.9 -1.6 -0.9 88 0.7 NNW 2 7 1 4 1006.6 1007.4 0.0
15/01:30am 0.5 -2.7 -0.5 93 0.4 NNW 6 9 3 5 1006.5 1007.3 0.0
15/01:00am 0.2 -2.3 -0.9 92 0.4 NNE 2 6 1 3 1006.8 1007.6 0.0
15/12:30am 2.2 -1.9 -0.2 84 0.9 NW 11 20 6 11 1006.9 1007.7 0.0
15/12:00am 1.4 -1.8 -0.4 88 0.7 NNW 6 9 3 5 1007.2 1008.1 0.0
 
Date/Time
EST
Temp
°C
App
Temp
°C
Dew
Point
°C
Rel
Hum
%
Delta-T
°C
Wind Press
QNH
hPa
Press
MSL
hPa
Rain since
9am
mm
Dir  Spd
km/h
Gust
km/h
Spd
kts
Gust
kts
14/11:30pm 2.0 -1.8 -0.6 83 1.0 NW 9 19 5 10 1007.6 1008.5 0.0
14/11:00pm 2.6 -2.7 -0.5 80 1.2 WNW 17 22 9 12 1008.1 1008.9 0.0
14/10:30pm 3.6 -1.6 0.1 78 1.4 WNW 17 22 9 12 1008.3 1009.2 0.0
14/10:00pm 3.8 0.1 0.0 76 1.5 NW 9 15 5 8 1008.5 1009.4 0.0
14/09:30pm 3.9 0.8 0.4 78 1.4 NW 6 11 3 6 1008.5 1009.4 0.0
14/09:00pm 4.6 1.5 0.2 73 1.8 NW 6 11 3 6 1008.6 1009.5 0.0
14/08:30pm 4.6 1.6 0.6 75 1.6 NW 6 11 3 6 1008.8 1009.7 0.0

Latest Capital City Observations: Canberra | Sydney | Melbourne | Brisbane | Adelaide | Perth | Hobart | Darwin

Other formats

Comma delimited format used in spreadsheet applications
http://www.bom.gov.au/fwo/IDN60903/IDN60903.94927.axf

JavaScript Object Notation format (JSON) in row-major order
http://www.bom.gov.au/fwo/IDN60903/IDN60903.94927.json

Data quality

Most of these data are generated automatically and are frequently updated. Quality checks on data are not normally performed. It is possible for incorrect values to appear. Refer to information at About Latest Weather Observations and please check the disclaimer before using these data.